MUHA/HAV METAR and TAF weather

Enter ICAO airport designator
Station Type Date Time Source
MUHA METAR 2019/10/23 06:55 UTC NOAA

MUHA 230655Z 00000KT 9000 FEW015TCU 25/25 Q1014


Station Type Date Time Source
MUHA Decoded METAR 2019/10/23 06:55 UTC NOAA

Aeropuerto Jose Marti, Rancho-Boyeros, Habana, Cuba (MUHA) 22-59N 082-24W 75M
Oct 23, 2019 - 02:55 AM EDT / 2019.10.23 0655 UTC
Wind: Calm:0
Visibility: 5 mile(s):0
Sky conditions: mostly clear
Weather: Towering cumulus clouds observed
Temperature: 77 F (25 C)
Dew Point: 77 F (25 C)
Relative Humidity: 100%
Pressure (altimeter): 29.94 in. Hg (1014 hPa)
ob: MUHA 230655Z 00000KT 9000 FEW015TCU 25/25 Q1014
cycle: 7

Station Type Date Time Source
MUHA TAF 2019/10/23 06:03 UTC NOAA

TAF MUHA 230500Z 2306/2406 06004KT 9000 FEW030
BECMG 2314/2316 09008KT PROB30
TEMPO 2320/2400 VRB10KT 5000 SHRA FEW020CB BKN030
BECMG 2403/2405 VRB03KT

Example: see airport list